createdAt,value
2017-06-29T00:00:11.315Z,29.8
2017-06-29T00:01:13.453Z,29.9
2017-06-29T00:02:15.585Z,29.8
2017-06-29T00:03:17.388Z,29.9
2017-06-29T00:04:18.841Z,29.8
2017-06-29T00:05:20.623Z,29.9
2017-06-29T00:06:22.758Z,29.8
2017-06-29T00:07:24.895Z,29.8
2017-06-29T00:08:26.349Z,29.7
2017-06-29T00:09:28.154Z,29.8
2017-06-29T00:10:29.959Z,29.8
2017-06-29T00:11:32.097Z,29.8
2017-06-29T00:12:34.235Z,29.7
2017-06-29T00:13:35.708Z,29.8
2017-06-29T00:14:37.490Z,29.8
2017-06-29T00:15:39.309Z,29.8
2017-06-29T00:16:41.109Z,29.7
2017-06-29T00:17:42.914Z,29.8
2017-06-29T00:18:45.049Z,29.8
2017-06-29T00:19:46.853Z,29.7
2017-06-29T00:20:48.657Z,29.7
2017-06-29T00:21:50.459Z,29.8
2017-06-29T00:22:52.596Z,29.7
2017-06-29T00:23:54.376Z,29.7
2017-06-29T00:24:56.516Z,29.8
2017-06-29T00:25:58.319Z,29.7
2017-06-29T00:27:00.455Z,29.7
2017-06-29T00:28:02.237Z,29.7
2017-06-29T00:29:03.712Z,29.7
2017-06-29T00:30:05.495Z,29.7
2017-06-29T00:31:06.608Z,29.8
2017-06-29T00:32:08.096Z,29.7
2017-06-29T00:33:09.898Z,29.7
2017-06-29T00:34:11.703Z,29.7
2017-06-29T00:35:13.504Z,29.7
2017-06-29T00:36:15.288Z,29.8
2017-06-29T00:37:17.092Z,29.8
2017-06-29T00:38:19.236Z,29.7
2017-06-29T00:39:21.387Z,29.7
2017-06-29T00:40:22.858Z,29.8
2017-06-29T00:41:25.003Z,29.7
2017-06-29T00:42:27.136Z,29.8
2017-06-29T00:43:29.275Z,29.8
2017-06-29T00:44:31.078Z,29.8
2017-06-29T00:45:32.552Z,29.7
2017-06-29T00:46:34.689Z,29.8
2017-06-29T00:47:36.826Z,29.7
2017-06-29T00:48:38.993Z,29.7
2017-06-29T00:49:41.130Z,29.8
2017-06-29T00:50:42.933Z,29.7
2017-06-29T00:51:44.405Z,29.7
2017-06-29T00:52:46.207Z,29.8
2017-06-29T00:53:47.682Z,29.8
2017-06-29T00:54:49.478Z,29.8
2017-06-29T00:55:51.285Z,29.7
2017-06-29T00:56:53.089Z,29.7
2017-06-29T00:57:54.892Z,29.8
2017-06-29T00:58:56.339Z,29.8
2017-06-29T00:59:58.147Z,29.7
2017-06-29T01:01:00.280Z,29.8
2017-06-29T01:02:02.082Z,29.7
2017-06-29T01:03:03.553Z,29.7
2017-06-29T01:04:05.359Z,29.7
2017-06-29T01:05:07.510Z,29.7
2017-06-29T01:06:08.956Z,29.7
2017-06-29T01:07:11.106Z,29.7
2017-06-29T01:08:13.237Z,29.8
2017-06-29T01:09:15.373Z,29.7
2017-06-29T01:10:17.511Z,29.8
2017-06-29T01:11:19.293Z,29.8
2017-06-29T01:12:21.099Z,29.7
2017-06-29T01:13:23.237Z,29.8
2017-06-29T01:14:25.393Z,29.7
2017-06-29T01:15:26.845Z,29.7
2017-06-29T01:16:27.962Z,29.7
2017-06-29T01:17:29.758Z,29.7
2017-06-29T01:18:31.564Z,29.7
2017-06-29T01:19:33.367Z,29.7
2017-06-29T01:20:35.151Z,29.8
2017-06-29T01:21:36.951Z,29.7
2017-06-29T01:22:38.759Z,29.7
2017-06-29T01:23:40.898Z,29.7
2017-06-29T01:24:43.033Z,29.7
2017-06-29T01:25:44.507Z,29.7
2017-06-29T01:26:46.643Z,29.7
2017-06-29T01:27:48.777Z,29.7
2017-06-29T01:28:50.914Z,29.7
2017-06-29T01:29:52.717Z,29.7
2017-06-29T01:30:54.856Z,29.7
2017-06-29T01:31:56.326Z,29.7
2017-06-29T01:32:58.464Z,29.7
2017-06-29T01:34:00.598Z,29.7
2017-06-29T01:35:02.406Z,29.7
2017-06-29T01:36:04.207Z,29.7
2017-06-29T01:37:05.657Z,29.7
2017-06-29T01:38:07.794Z,29.7
2017-06-29T01:39:09.957Z,29.7
2017-06-29T01:40:11.425Z,29.7
2017-06-29T01:41:13.209Z,29.7
2017-06-29T01:42:15.349Z,29.7
2017-06-29T01:43:17.485Z,29.7
2017-06-29T01:44:19.290Z,29.7
2017-06-29T01:45:20.763Z,29.7
2017-06-29T01:46:22.901Z,29.6
2017-06-29T01:47:25.041Z,29.6
2017-06-29T01:48:27.180Z,29.7
2017-06-29T01:49:28.962Z,29.7
2017-06-29T01:50:30.411Z,29.6
2017-06-29T01:51:32.549Z,29.7
2017-06-29T01:52:34.688Z,29.7
2017-06-29T01:53:36.159Z,29.7
2017-06-29T01:54:37.607Z,29.6
2017-06-29T01:55:38.754Z,29.7
2017-06-29T01:56:40.558Z,29.6
2017-06-29T01:57:42.696Z,29.6
2017-06-29T01:58:44.481Z,29.7
2017-06-29T01:59:46.287Z,29.6
2017-06-29T02:00:48.089Z,29.6
2017-06-29T02:01:49.874Z,29.6
2017-06-29T02:02:51.678Z,29.6
2017-06-29T02:03:53.815Z,29.6
2017-06-29T02:04:55.952Z,29.6
2017-06-29T02:05:57.757Z,29.6
2017-06-29T02:06:59.562Z,29.6
2017-06-29T02:08:01.697Z,29.7
2017-06-29T02:09:03.834Z,29.6
2017-06-29T02:10:05.971Z,29.6
2017-06-29T02:11:07.423Z,29.6
2017-06-29T02:12:09.232Z,29.6
2017-06-29T02:13:11.028Z,29.6
2017-06-29T02:14:13.150Z,29.6
2017-06-29T02:15:14.956Z,29.6
2017-06-29T02:16:17.094Z,29.6
2017-06-29T02:17:18.897Z,29.6
2017-06-29T02:18:21.036Z,29.6
2017-06-29T02:19:23.200Z,29.6
2017-06-29T02:20:25.384Z,29.6
2017-06-29T02:21:27.524Z,29.6
2017-06-29T02:22:28.636Z,29.6
2017-06-29T02:23:30.460Z,29.6
2017-06-29T02:24:32.623Z,29.5
2017-06-29T02:25:34.095Z,29.6
2017-06-29T02:26:35.572Z,29.5
2017-06-29T02:27:37.031Z,29.6
2017-06-29T02:28:39.169Z,29.6
2017-06-29T02:29:40.970Z,29.6
2017-06-29T02:30:43.114Z,29.6
2017-06-29T02:31:45.249Z,29.6
2017-06-29T02:32:47.051Z,29.6
2017-06-29T02:33:48.522Z,29.6
2017-06-29T02:34:50.659Z,29.6
2017-06-29T02:35:52.796Z,29.6
2017-06-29T02:36:54.603Z,29.6
2017-06-29T02:37:55.717Z,29.6
2017-06-29T02:38:57.854Z,29.6
2017-06-29T02:39:59.658Z,29.5
2017-06-29T02:41:01.458Z,29.6
2017-06-29T02:42:03.596Z,29.6
2017-06-29T02:43:05.438Z,29.6
2017-06-29T02:44:07.574Z,29.6
2017-06-29T02:45:09.386Z,29.5
2017-06-29T02:46:11.173Z,29.6
2017-06-29T02:47:12.963Z,29.6
2017-06-29T02:48:14.414Z,29.6
2017-06-29T02:49:15.883Z,29.6
2017-06-29T02:50:18.020Z,29.6
2017-06-29T02:51:19.802Z,29.6
2017-06-29T02:52:21.608Z,29.6
2017-06-29T02:53:23.387Z,29.6
2017-06-29T02:54:24.868Z,29.6
2017-06-29T02:55:26.670Z,29.5
2017-06-29T02:56:27.798Z,29.6
2017-06-29T02:57:29.934Z,29.6
2017-06-29T02:58:32.070Z,29.6
2017-06-29T02:59:33.871Z,29.6
2017-06-29T03:00:36.013Z,29.6
2017-06-29T03:01:37.484Z,29.6
2017-06-29T03:02:39.280Z,29.6
2017-06-29T03:03:41.084Z,29.5
2017-06-29T03:04:42.888Z,29.6
2017-06-29T03:05:44.004Z,29.6
2017-06-29T03:06:45.811Z,29.5
2017-06-29T03:07:47.614Z,29.5
2017-06-29T03:08:49.760Z,29.5
2017-06-29T03:09:51.558Z,29.6
2017-06-29T03:10:53.034Z,29.6
2017-06-29T03:11:54.843Z,29.6
2017-06-29T03:12:56.981Z,29.6
2017-06-29T03:13:59.118Z,29.6
2017-06-29T03:15:00.924Z,29.6
2017-06-29T03:16:03.059Z,29.5
2017-06-29T03:17:04.526Z,29.6
2017-06-29T03:18:06.667Z,29.6
2017-06-29T03:19:08.474Z,29.6
2017-06-29T03:20:10.279Z,29.5
2017-06-29T03:21:11.402Z,29.6
2017-06-29T03:22:12.851Z,29.6
2017-06-29T03:23:14.324Z,29.5
2017-06-29T03:24:15.776Z,29.5
2017-06-29T03:25:17.913Z,29.6
2017-06-29T03:26:19.360Z,29.6
2017-06-29T03:27:20.815Z,29.6
2017-06-29T03:28:22.600Z,29.6
2017-06-29T03:29:24.382Z,29.5
2017-06-29T03:30:26.200Z,29.6
2017-06-29T03:31:27.995Z,29.6
2017-06-29T03:32:30.138Z,29.6
2017-06-29T03:33:31.922Z,29.6
2017-06-29T03:34:33.392Z,29.6
2017-06-29T03:35:34.840Z,29.6
2017-06-29T03:36:36.643Z,29.6
2017-06-29T03:37:38.450Z,29.6
2017-06-29T03:38:40.587Z,29.6
2017-06-29T03:39:42.744Z,29.6
2017-06-29T03:40:44.875Z,29.5
2017-06-29T03:41:46.342Z,29.5
2017-06-29T03:42:48.485Z,29.7
2017-06-29T03:43:50.620Z,29.6
2017-06-29T03:44:52.432Z,29.6
2017-06-29T03:45:54.214Z,29.6
2017-06-29T03:46:55.997Z,29.6
2017-06-29T03:47:57.449Z,29.6
2017-06-29T03:48:59.254Z,29.5
2017-06-29T03:50:01.057Z,29.6
2017-06-29T03:51:02.863Z,29.6
2017-06-29T03:52:04.330Z,29.6
2017-06-29T03:53:05.832Z,29.5
2017-06-29T03:54:07.279Z,29.6
2017-06-29T03:55:09.435Z,29.6
2017-06-29T03:56:11.574Z,29.6
2017-06-29T03:57:13.375Z,29.6
2017-06-29T03:58:15.160Z,29.6
2017-06-29T03:59:17.298Z,29.6
2017-06-29T04:00:19.438Z,29.6
2017-06-29T04:01:20.934Z,29.6
2017-06-29T04:02:22.406Z,29.5
2017-06-29T04:03:24.191Z,29.6
2017-06-29T04:04:26.328Z,29.6
2017-06-29T04:05:28.134Z,29.6
2017-06-29T04:06:29.944Z,29.6
2017-06-29T04:07:32.082Z,29.6
2017-06-29T04:08:34.221Z,29.6
2017-06-29T04:09:35.359Z,29.5
2017-06-29T04:10:36.815Z,29.6
2017-06-29T04:11:38.721Z,29.6
2017-06-29T04:12:40.526Z,29.6
2017-06-29T04:13:42.332Z,29.6
2017-06-29T04:14:43.481Z,29.5
2017-06-29T04:15:45.281Z,29.6
2017-06-29T04:16:47.067Z,29.6
2017-06-29T04:17:49.205Z,29.6
2017-06-29T04:18:50.657Z,29.5
2017-06-29T04:19:52.796Z,29.6
2017-06-29T04:20:54.251Z,29.6
2017-06-29T04:21:55.722Z,29.6
2017-06-29T04:22:57.523Z,29.6
2017-06-29T04:23:58.970Z,29.6
2017-06-29T04:25:00.780Z,29.6
2017-06-29T04:26:02.255Z,29.6
2017-06-29T04:27:03.704Z,29.5
2017-06-29T04:28:05.841Z,29.6
2017-06-29T04:29:07.644Z,29.6
2017-06-29T04:30:09.119Z,29.6
2017-06-29T04:31:10.919Z,29.6
2017-06-29T04:32:12.722Z,29.6
2017-06-29T04:33:14.866Z,29.6
2017-06-29T04:34:16.687Z,29.5
2017-06-29T04:35:18.497Z,29.6
2017-06-29T04:36:19.990Z,29.6
2017-06-29T04:37:21.472Z,29.5
2017-06-29T04:38:22.922Z,29.6
2017-06-29T04:39:24.727Z,29.5
2017-06-29T04:40:26.539Z,29.6
2017-06-29T04:41:28.682Z,29.6
2017-06-29T04:42:30.490Z,29.6
2017-06-29T04:43:31.609Z,29.6
2017-06-29T04:44:33.742Z,29.6
2017-06-29T04:45:35.187Z,29.6
2017-06-29T04:46:37.325Z,29.6
2017-06-29T04:47:39.133Z,29.5
2017-06-29T04:48:41.271Z,29.6
2017-06-29T04:49:42.730Z,29.6
2017-06-29T04:50:44.516Z,29.6
2017-06-29T04:51:46.654Z,29.5
2017-06-29T04:52:48.460Z,29.6
2017-06-29T04:53:50.268Z,29.5
2017-06-29T04:54:51.717Z,29.6
2017-06-29T04:55:53.508Z,29.6
2017-06-29T04:56:55.313Z,29.6
2017-06-29T04:57:57.450Z,29.6
2017-06-29T04:58:59.589Z,29.6
2017-06-29T05:00:01.728Z,29.5
2017-06-29T05:01:03.865Z,29.6
2017-06-29T05:02:06.004Z,29.6
2017-06-29T05:03:07.807Z,29.6
2017-06-29T05:04:09.945Z,29.6
2017-06-29T05:05:11.400Z,29.6
2017-06-29T05:06:13.537Z,29.6
2017-06-29T05:07:15.345Z,29.6
2017-06-29T05:08:17.153Z,29.6
2017-06-29T05:09:18.958Z,29.6
2017-06-29T05:10:20.766Z,29.5
2017-06-29T05:11:21.881Z,29.6
2017-06-29T05:12:24.025Z,29.6
2017-06-29T05:13:25.494Z,29.5
2017-06-29T05:14:26.966Z,29.6
2017-06-29T05:15:28.751Z,29.5
2017-06-29T05:16:30.891Z,29.6
2017-06-29T05:17:32.004Z,29.5
2017-06-29T05:18:33.454Z,29.6
2017-06-29T05:19:35.260Z,29.5
2017-06-29T05:20:37.069Z,29.5
2017-06-29T05:21:38.521Z,29.6
2017-06-29T05:22:39.993Z,29.5
2017-06-29T05:23:41.446Z,29.5
2017-06-29T05:24:42.899Z,29.6
2017-06-29T05:25:45.036Z,29.5
2017-06-29T05:26:46.841Z,29.6
2017-06-29T05:27:48.645Z,29.6
2017-06-29T05:28:50.430Z,29.6
2017-06-29T05:29:52.566Z,29.6
2017-06-29T05:30:54.046Z,29.6
2017-06-29T05:31:56.185Z,29.6
2017-06-29T05:32:57.986Z,29.6
2017-06-29T05:33:59.130Z,29.6
2017-06-29T05:35:01.266Z,29.6
2017-06-29T05:36:03.401Z,29.6
2017-06-29T05:37:05.539Z,29.6
2017-06-29T05:38:07.341Z,29.6
2017-06-29T05:39:09.144Z,29.5
2017-06-29T05:40:10.980Z,29.6
2017-06-29T05:41:12.782Z,29.6
2017-06-29T05:42:14.921Z,29.6
2017-06-29T05:43:16.394Z,29.5
2017-06-29T05:44:18.203Z,29.6
2017-06-29T05:45:20.339Z,29.6
2017-06-29T05:46:22.473Z,29.6
2017-06-29T05:47:24.611Z,29.6
2017-06-29T05:48:26.416Z,29.5
2017-06-29T05:49:28.555Z,29.6
2017-06-29T05:50:30.025Z,29.6
2017-06-29T05:51:31.832Z,29.6
2017-06-29T05:52:33.633Z,29.5
2017-06-29T05:53:35.082Z,29.7
2017-06-29T05:54:37.219Z,29.6
2017-06-29T05:55:39.357Z,29.6
2017-06-29T05:56:41.167Z,29.6
2017-06-29T05:57:42.971Z,29.5
2017-06-29T05:58:44.422Z,29.5
2017-06-29T05:59:45.870Z,29.6
2017-06-29T06:00:47.675Z,29.6
2017-06-29T06:01:49.482Z,29.6
2017-06-29T06:02:51.620Z,29.6
2017-06-29T06:03:53.762Z,29.6
2017-06-29T06:04:55.611Z,29.6
2017-06-29T06:05:57.066Z,29.5
2017-06-29T06:06:58.874Z,29.6
2017-06-29T06:08:00.329Z,29.6
2017-06-29T06:09:02.470Z,29.6
2017-06-29T06:10:04.273Z,29.7
2017-06-29T06:11:06.426Z,29.6
2017-06-29T06:12:07.872Z,29.6
2017-06-29T06:13:09.675Z,29.6
2017-06-29T06:14:11.814Z,29.7
2017-06-29T06:15:13.953Z,29.7
2017-06-29T06:16:16.093Z,29.6
2017-06-29T06:17:17.563Z,29.7
2017-06-29T06:18:19.032Z,29.7
2017-06-29T06:19:21.172Z,29.6
2017-06-29T06:20:22.627Z,29.7
2017-06-29T06:21:24.768Z,29.6
2017-06-29T06:22:26.908Z,29.6
2017-06-29T06:23:28.713Z,29.7
2017-06-29T06:24:30.518Z,29.7
2017-06-29T06:25:32.321Z,29.6
2017-06-29T06:26:33.791Z,29.7
2017-06-29T06:27:35.943Z,29.7
2017-06-29T06:28:37.425Z,29.8
2017-06-29T06:29:39.203Z,29.7
2017-06-29T06:30:40.683Z,29.7
2017-06-29T06:31:42.488Z,29.7
2017-06-29T06:32:44.296Z,29.7
2017-06-29T06:33:46.103Z,29.8
2017-06-29T06:34:47.912Z,29.7
2017-06-29T06:35:49.718Z,29.7
2017-06-29T06:36:51.858Z,29.7
2017-06-29T06:37:53.993Z,29.8
2017-06-29T06:38:56.136Z,29.7
2017-06-29T06:39:58.275Z,29.7
2017-06-29T06:41:00.082Z,29.7
2017-06-29T06:42:01.889Z,29.8
2017-06-29T06:43:03.693Z,29.8
2017-06-29T06:44:05.147Z,29.8
2017-06-29T06:45:06.931Z,29.7
2017-06-29T06:46:09.084Z,29.7
2017-06-29T06:47:10.870Z,29.7
2017-06-29T06:48:13.010Z,29.7
2017-06-29T06:49:14.466Z,29.7
2017-06-29T06:50:16.606Z,29.7
2017-06-29T06:51:18.410Z,29.8
2017-06-29T06:52:20.548Z,29.8
2017-06-29T06:53:21.998Z,29.7
2017-06-29T06:54:24.135Z,29.7
2017-06-29T06:55:25.607Z,29.8
2017-06-29T06:56:27.088Z,29.7
2017-06-29T06:57:29.226Z,29.7
2017-06-29T06:58:31.013Z,29.8
2017-06-29T06:59:32.819Z,29.8
2017-06-29T07:00:34.626Z,29.7
2017-06-29T07:01:36.435Z,29.7
2017-06-29T07:02:38.220Z,29.7
2017-06-29T07:03:40.027Z,29.7
2017-06-29T07:04:41.807Z,29.8
2017-06-29T07:05:43.257Z,29.8
2017-06-29T07:06:45.396Z,29.8
2017-06-29T07:07:47.534Z,29.8
2017-06-29T07:08:48.993Z,29.8
2017-06-29T07:09:50.785Z,29.9
2017-06-29T07:10:52.229Z,29.9
2017-06-29T07:11:54.034Z,29.9
2017-06-29T07:12:55.838Z,29.8
2017-06-29T07:13:57.979Z,29.8
2017-06-29T07:14:59.103Z,29.9
2017-06-29T07:16:01.240Z,29.9
2017-06-29T07:17:02.372Z,29.8
2017-06-29T07:18:04.177Z,29.8
2017-06-29T07:19:05.987Z,29.8
2017-06-29T07:20:07.105Z,29.9
2017-06-29T07:21:09.247Z,29.9
2017-06-29T07:22:11.056Z,29.9
2017-06-29T07:23:12.838Z,29.9
2017-06-29T07:24:14.625Z,29.9
2017-06-29T07:25:16.429Z,29.9
2017-06-29T07:26:18.247Z,29.9
2017-06-29T07:27:19.367Z,29.9
2017-06-29T07:28:20.822Z,29.9
2017-06-29T07:29:22.959Z,29.9
2017-06-29T07:30:24.741Z,29.9
2017-06-29T07:31:26.552Z,29.9
2017-06-29T07:32:28.354Z,29.9
2017-06-29T07:33:29.806Z,29.9
2017-06-29T07:34:31.945Z,29.9
2017-06-29T07:35:34.082Z,30
2017-06-29T07:36:36.220Z,29.8
2017-06-29T07:37:38.030Z,30
2017-06-29T07:38:40.166Z,29.8
2017-06-29T07:39:41.971Z,29.9
2017-06-29T07:40:44.110Z,30
2017-06-29T07:41:45.914Z,29.9
2017-06-29T07:42:47.718Z,30
2017-06-29T07:43:49.863Z,30
2017-06-29T07:44:52.004Z,30
2017-06-29T07:45:54.140Z,30
2017-06-29T07:46:56.278Z,30
2017-06-29T07:47:58.084Z,29.9
2017-06-29T07:48:59.531Z,30
2017-06-29T07:50:01.671Z,29.9
2017-06-29T07:51:03.474Z,29.9
2017-06-29T07:52:05.280Z,30
2017-06-29T07:53:07.473Z,29.9
2017-06-29T07:54:08.942Z,30
2017-06-29T07:55:10.748Z,30
2017-06-29T07:56:12.889Z,30
2017-06-29T07:57:14.361Z,29.8
2017-06-29T07:58:15.822Z,29.9
2017-06-29T07:59:17.625Z,29.9
2017-06-29T08:00:19.762Z,29.9
2017-06-29T08:01:21.565Z,30
2017-06-29T08:02:23.702Z,29.9
2017-06-29T08:03:25.252Z,29.9
2017-06-29T08:04:27.404Z,30
2017-06-29T08:05:29.187Z,29.9
2017-06-29T08:06:31.328Z,30
2017-06-29T08:07:32.108Z,30
2017-06-29T08:08:34.248Z,29.9
2017-06-29T08:09:36.028Z,30
2017-06-29T08:10:38.166Z,30
2017-06-29T08:11:39.616Z,30
2017-06-29T08:12:41.425Z,30
2017-06-29T08:13:43.665Z,29.9
2017-06-29T08:14:45.451Z,30
2017-06-29T08:15:46.588Z,30
2017-06-29T08:16:48.395Z,30.1
2017-06-29T08:17:50.200Z,30
2017-06-29T08:18:51.988Z,30
2017-06-29T08:19:54.122Z,30
2017-06-29T08:20:55.910Z,30
2017-06-29T08:21:57.691Z,30.1
2017-06-29T08:22:59.165Z,30.1
2017-06-29T08:24:01.300Z,30
2017-06-29T08:25:03.105Z,30
2017-06-29T08:26:04.552Z,30.1
2017-06-29T08:27:06.690Z,30.1
2017-06-29T08:28:08.165Z,30
2017-06-29T08:29:09.621Z,30.1
2017-06-29T08:30:11.069Z,30.1
2017-06-29T08:31:12.554Z,30.1
2017-06-29T08:32:14.358Z,30
2017-06-29T08:33:16.168Z,30.1
2017-06-29T08:34:18.303Z,30.1
2017-06-29T08:35:20.110Z,30.1
2017-06-29T08:36:22.252Z,30.1
2017-06-29T08:37:24.058Z,30.2
2017-06-29T08:38:26.193Z,30.1
2017-06-29T08:39:27.702Z,30.1
2017-06-29T08:40:29.532Z,30.1
2017-06-29T08:41:31.009Z,30
2017-06-29T08:42:33.149Z,30.1
2017-06-29T08:43:34.621Z,30.1
2017-06-29T08:44:36.760Z,30.1
2017-06-29T08:45:38.899Z,30.1
2017-06-29T08:46:40.374Z,30.1
2017-06-29T08:47:42.514Z,30.1
2017-06-29T08:48:43.631Z,30.2
2017-06-29T08:49:45.443Z,30.1
2017-06-29T08:50:47.583Z,30.2
2017-06-29T08:51:49.726Z,30.1
2017-06-29T08:52:50.842Z,30.1
2017-06-29T08:53:52.298Z,30.2
2017-06-29T08:54:54.536Z,30.1
2017-06-29T08:55:56.674Z,30.1
2017-06-29T08:56:58.481Z,30.2
2017-06-29T08:57:59.930Z,30.2
2017-06-29T08:59:01.737Z,30.2
2017-06-29T09:00:03.873Z,30.1
2017-06-29T09:01:06.016Z,30.2
2017-06-29T09:02:07.470Z,30.2
2017-06-29T09:03:08.584Z,30.2
2017-06-29T09:04:10.374Z,30.3
2017-06-29T09:05:12.208Z,30.3
2017-06-29T09:06:14.350Z,30.2
2017-06-29T09:07:15.818Z,30.2
2017-06-29T09:08:16.959Z,30.2
2017-06-29T09:09:18.766Z,30.3
2017-06-29T09:10:20.571Z,30.3
2017-06-29T09:11:22.709Z,30.2
2017-06-29T09:12:24.519Z,30.3
2017-06-29T09:13:26.658Z,30.3
2017-06-29T09:14:28.823Z,30.3
2017-06-29T09:15:30.965Z,30.2
2017-06-29T09:16:32.418Z,30.3
2017-06-29T09:17:34.201Z,30.3
2017-06-29T09:18:36.356Z,30.2
2017-06-29T09:19:38.153Z,30.3
2017-06-29T09:20:40.295Z,30.3
2017-06-29T09:21:42.435Z,30.3
2017-06-29T09:22:44.242Z,30.3
2017-06-29T09:23:46.052Z,30.3
2017-06-29T09:24:47.504Z,30.4
2017-06-29T09:25:49.311Z,30.2
2017-06-29T09:26:50.781Z,30.3
2017-06-29T09:27:52.238Z,30.3
2017-06-29T09:28:53.709Z,30.3
2017-06-29T09:29:55.853Z,30.3
2017-06-29T09:30:57.994Z,30.3
2017-06-29T09:32:00.164Z,30.3
2017-06-29T09:33:02.309Z,30.3
2017-06-29T09:34:04.110Z,30.4
2017-06-29T09:35:06.236Z,30.3
2017-06-29T09:36:07.072Z,30.4
2017-06-29T09:37:09.212Z,30.3
2017-06-29T09:38:11.354Z,30.5
2017-06-29T09:39:12.829Z,30.3
2017-06-29T09:40:14.966Z,30.3
2017-06-29T09:41:16.775Z,30.3
2017-06-29T09:42:18.916Z,30.4
2017-06-29T09:43:21.055Z,30.4
2017-06-29T09:44:23.200Z,30.4
2017-06-29T09:45:25.339Z,30.4
2017-06-29T09:46:27.476Z,30.5
2017-06-29T09:47:28.950Z,30.4
2017-06-29T09:48:30.739Z,30.5
2017-06-29T09:49:32.878Z,30.4
2017-06-29T09:50:34.353Z,30.4
2017-06-29T09:51:36.496Z,30.4
2017-06-29T09:52:38.633Z,30.5
2017-06-29T09:53:40.441Z,30.4
2017-06-29T09:54:41.915Z,30.5
2017-06-29T09:55:43.035Z,30.5
2017-06-29T09:56:44.841Z,30.5
2017-06-29T09:57:46.655Z,30.4
2017-06-29T09:58:48.794Z,30.5
2017-06-29T09:59:50.936Z,30.5
2017-06-29T10:00:52.738Z,30.5
2017-06-29T10:01:54.877Z,30.4
2017-06-29T10:02:57.015Z,30.5
2017-06-29T10:03:58.800Z,30.5
2017-06-29T10:05:00.603Z,30.5
2017-06-29T10:06:02.083Z,30.5
2017-06-29T10:07:03.887Z,30.4
2017-06-29T10:08:05.693Z,30.5
2017-06-29T10:09:06.814Z,30.5
2017-06-29T10:10:08.620Z,30.4
2017-06-29T10:11:10.427Z,30.4
2017-06-29T10:12:12.312Z,30.6
2017-06-29T10:13:14.452Z,30.5
2017-06-29T10:14:16.242Z,30.5
2017-06-29T10:15:18.385Z,30.5
2017-06-29T10:16:20.183Z,30.6
2017-06-29T10:17:21.628Z,30.5
2017-06-29T10:18:23.768Z,30.5
2017-06-29T10:19:25.906Z,30.5
2017-06-29T10:20:27.695Z,30.6
2017-06-29T10:21:29.511Z,30.5
2017-06-29T10:22:31.316Z,30.6
2017-06-29T10:23:33.452Z,30.6
2017-06-29T10:24:35.245Z,30.5
2017-06-29T10:25:36.696Z,30.6
2017-06-29T10:26:38.502Z,30.6
2017-06-29T10:27:39.953Z,30.6
2017-06-29T10:28:42.098Z,30.6
2017-06-29T10:29:44.238Z,30.6
2017-06-29T10:30:45.708Z,30.6
2017-06-29T10:31:47.178Z,30.6
2017-06-29T10:32:48.959Z,30.6
2017-06-29T10:33:50.743Z,30.7
2017-06-29T10:34:52.882Z,30.7
2017-06-29T10:35:54.688Z,30.7
2017-06-29T10:36:56.142Z,30.7
2017-06-29T10:37:57.945Z,30.6
2017-06-29T10:38:59.420Z,30.7
2017-06-29T10:40:01.226Z,30.6
2017-06-29T10:41:02.683Z,30.7
2017-06-29T10:42:04.468Z,30.7
2017-06-29T10:43:05.940Z,30.7
2017-06-29T10:44:07.747Z,30.7
2017-06-29T10:45:09.533Z,30.7
2017-06-29T10:46:11.315Z,30.7
2017-06-29T10:47:13.119Z,30.8
2017-06-29T10:48:14.927Z,30.8
2017-06-29T10:49:17.061Z,30.7
2017-06-29T10:50:18.868Z,30.7
2017-06-29T10:51:20.652Z,30.7
2017-06-29T10:52:22.439Z,30.8
2017-06-29T10:53:24.580Z,30.8
2017-06-29T10:54:26.720Z,30.7
2017-06-29T10:55:28.526Z,30.7
2017-06-29T10:56:29.979Z,30.8
2017-06-29T10:57:31.098Z,30.7
2017-06-29T10:58:32.903Z,30.8
2017-06-29T10:59:34.026Z,30.7
2017-06-29T11:00:36.169Z,30.8
2017-06-29T11:01:37.616Z,30.7
2017-06-29T11:02:39.401Z,30.8
2017-06-29T11:03:41.540Z,30.7
2017-06-29T11:04:43.683Z,30.7
2017-06-29T11:05:45.158Z,30.8
2017-06-29T11:06:46.613Z,30.7
2017-06-29T11:07:48.419Z,30.8
2017-06-29T11:08:49.975Z,30.8
2017-06-29T11:09:51.759Z,30.8
2017-06-29T11:10:53.571Z,30.8
2017-06-29T11:11:55.710Z,30.8
2017-06-29T11:12:57.853Z,30.8
2017-06-29T11:13:59.989Z,30.9
2017-06-29T11:15:01.797Z,30.9
2017-06-29T11:16:03.246Z,30.9
2017-06-29T11:17:05.032Z,30.9
2017-06-29T11:18:07.174Z,30.9
2017-06-29T11:19:08.297Z,30.9
2017-06-29T11:20:09.772Z,30.9
2017-06-29T11:21:11.910Z,30.9
2017-06-29T11:22:14.053Z,30.8
2017-06-29T11:23:15.853Z,30.8
2017-06-29T11:24:18.094Z,30.9
2017-06-29T11:25:20.230Z,30.9
2017-06-29T11:26:22.037Z,30.8
2017-06-29T11:27:23.843Z,30.8
2017-06-29T11:28:25.983Z,30.9
2017-06-29T11:29:28.120Z,30.9
2017-06-29T11:30:29.238Z,30.8
2017-06-29T11:31:31.376Z,30.9
2017-06-29T11:32:33.192Z,30.8
2017-06-29T11:33:34.645Z,30.8
2017-06-29T11:34:36.450Z,30.8
2017-06-29T11:35:38.590Z,30.8
2017-06-29T11:36:40.066Z,30.9
2017-06-29T11:37:41.849Z,30.9
2017-06-29T11:38:42.639Z,30.9
2017-06-29T11:39:44.421Z,30.8
2017-06-29T11:40:46.558Z,30.8
2017-06-29T11:41:48.363Z,30.9
2017-06-29T11:42:50.146Z,30.8
2017-06-29T11:43:51.617Z,30.9
2017-06-29T11:44:53.757Z,30.9
2017-06-29T11:45:54.879Z,30.9
2017-06-29T11:46:56.328Z,30.9
2017-06-29T11:47:58.116Z,30.9
2017-06-29T11:48:59.923Z,30.9
2017-06-29T11:50:01.710Z,30.9
2017-06-29T11:51:03.183Z,30.8
2017-06-29T11:52:05.325Z,30.9
2017-06-29T11:53:06.794Z,30.9
2017-06-29T11:54:08.269Z,30.9
2017-06-29T11:55:10.408Z,30.9
2017-06-29T11:56:11.864Z,30.9
2017-06-29T11:57:13.666Z,31
2017-06-29T11:58:15.805Z,30.9
2017-06-29T11:59:17.944Z,30.9
2017-06-29T12:00:19.728Z,30.9
2017-06-29T12:01:21.534Z,31
2017-06-29T12:02:23.674Z,30.9
2017-06-29T12:03:25.145Z,31
2017-06-29T12:04:26.599Z,31
2017-06-29T12:05:28.404Z,31
2017-06-29T12:06:30.190Z,31
2017-06-29T12:07:32.332Z,31
2017-06-29T12:08:34.118Z,31
2017-06-29T12:09:35.907Z,31
2017-06-29T12:10:37.437Z,31
2017-06-29T12:11:38.882Z,30.9
2017-06-29T12:12:40.687Z,31
2017-06-29T12:13:42.474Z,31
2017-06-29T12:14:44.280Z,31.1
2017-06-29T12:15:46.063Z,31
2017-06-29T12:16:47.851Z,31.1
2017-06-29T12:17:49.328Z,31
2017-06-29T12:18:51.129Z,31
2017-06-29T12:19:53.268Z,31
2017-06-29T12:20:55.073Z,31
2017-06-29T12:21:56.881Z,31
2017-06-29T12:22:58.686Z,31
2017-06-29T12:24:00.824Z,31
2017-06-29T12:25:02.631Z,31
2017-06-29T12:26:04.435Z,31
2017-06-29T12:27:06.242Z,31
2017-06-29T12:28:07.715Z,31
2017-06-29T12:29:09.522Z,31
2017-06-29T12:30:11.662Z,31
2017-06-29T12:31:13.120Z,31
2017-06-29T12:32:14.902Z,31
2017-06-29T12:33:16.351Z,31
2017-06-29T12:34:17.802Z,31.1
2017-06-29T12:35:19.613Z,31
2017-06-29T12:36:21.751Z,31
2017-06-29T12:37:23.200Z,31
2017-06-29T12:38:24.656Z,31
2017-06-29T12:39:26.801Z,31
2017-06-29T12:40:28.251Z,31
2017-06-29T12:41:30.036Z,31
2017-06-29T12:42:31.841Z,31.1
2017-06-29T12:43:33.291Z,31
2017-06-29T12:44:35.097Z,31
2017-06-29T12:45:36.902Z,31
2017-06-29T12:46:38.710Z,31
2017-06-29T12:47:40.515Z,31
2017-06-29T12:48:41.988Z,30.9
2017-06-29T12:49:44.128Z,31
2017-06-29T12:50:45.584Z,31
2017-06-29T12:51:47.720Z,31
2017-06-29T12:52:49.859Z,31
2017-06-29T12:53:51.668Z,31
2017-06-29T12:54:53.453Z,31
2017-06-29T12:55:55.593Z,31
2017-06-29T12:56:57.045Z,31
2017-06-29T12:57:58.504Z,31.1
2017-06-29T12:59:00.640Z,31
2017-06-29T13:00:02.111Z,31.1
2017-06-29T13:01:03.226Z,31
2017-06-29T13:02:05.132Z,31.1
2017-06-29T13:03:07.270Z,31.1
2017-06-29T13:04:09.424Z,31.1
2017-06-29T13:05:11.225Z,31.1
2017-06-29T13:06:12.677Z,31.2
2017-06-29T13:07:14.565Z,31.2
2017-06-29T13:08:16.379Z,31.1
2017-06-29T13:09:18.187Z,31.2
2017-06-29T13:10:20.329Z,31.2
2017-06-29T13:11:21.446Z,31.2
2017-06-29T13:12:22.899Z,31.2
2017-06-29T13:13:24.703Z,31.2
2017-06-29T13:14:26.162Z,31.3
2017-06-29T13:15:27.615Z,31.2
2017-06-29T13:16:29.418Z,31.2
2017-06-29T13:17:31.225Z,31.2
2017-06-29T13:18:32.701Z,31.2
2017-06-29T13:19:34.506Z,31.2
2017-06-29T13:20:36.315Z,31.1
2017-06-29T13:21:38.122Z,31.2
2017-06-29T13:22:39.934Z,31.2
2017-06-29T13:23:41.744Z,31.2
2017-06-29T13:24:43.530Z,31.2
2017-06-29T13:25:45.001Z,31.2
2017-06-29T13:26:46.810Z,31.2
2017-06-29T13:27:48.288Z,31.2
2017-06-29T13:28:50.077Z,31.2
2017-06-29T13:29:51.882Z,31.2
2017-06-29T13:30:54.023Z,31.2
2017-06-29T13:31:56.164Z,31.1
2017-06-29T13:32:57.735Z,31.2
2017-06-29T13:33:59.199Z,31.2
2017-06-29T13:35:01.005Z,31.2
2017-06-29T13:36:02.453Z,31.1
2017-06-29T13:37:03.910Z,31.2
2017-06-29T13:38:06.099Z,31.2
2017-06-29T13:39:08.237Z,31.2
2017-06-29T13:40:10.379Z,31.2
2017-06-29T13:41:12.516Z,31.2
2017-06-29T13:42:13.965Z,31.2
2017-06-29T13:43:15.774Z,31.2
2017-06-29T13:44:17.910Z,31.1
2017-06-29T13:45:20.057Z,31.2
2017-06-29T13:46:22.195Z,31.2
2017-06-29T13:47:24.005Z,31.2
2017-06-29T13:48:25.457Z,31.2